Time;durP1;ratioP1;P1;durP2;ratioP2;P2;SDS_P1;SDS_P2;PMS_P1;PMS_P2;Temp;Humidity;BMP_temperature;BMP_pressure;BME280_temperature;BME280_humidity;BME280_pressure;Samples;Min_cycle;Max_cycle;Signal;HPM_P1;HPM_P2
2023/07/28 00:02:06;;;;;;;1.40;1.30;;;18.60;99.90;;;;;;5053542;28;20107;-63
2023/07/28 00:04:35;;;;;;;2.67;1.60;;;18.60;99.90;;;;;;5056106;28;20039;-63
2023/07/28 00:07:01;;;;;;;1.90;1.73;;;18.70;99.90;;;;;;5055999;28;20044;-64
2023/07/28 00:09:26;;;;;;;2.67;1.20;;;18.70;99.90;;;;;;5051516;28;20082;-63
2023/07/28 00:11:52;;;;;;;3.15;1.45;;;18.60;99.90;;;;;;5054208;28;20127;-63
2023/07/28 00:14:18;;;;;;;2.08;1.50;;;18.70;99.90;;;;;;5056125;28;20150;-63
2023/07/28 00:16:44;;;;;;;2.03;1.40;;;18.70;99.90;;;;;;5053701;28;20059;-64
2023/07/28 00:19:10;;;;;;;3.55;1.40;;;18.80;99.90;;;;;;5055788;28;20082;-63
2023/07/28 00:21:35;;;;;;;1.85;1.23;;;18.80;99.90;;;;;;5053808;28;20040;-63
2023/07/28 00:24:01;;;;;;;2.17;1.17;;;18.80;99.90;;;;;;5055681;28;20041;-63
2023/07/28 00:26:27;;;;;;;1.38;1.08;;;18.90;99.90;;;;;;5051907;28;20029;-63
2023/07/28 00:28:52;;;;;;;2.33;1.23;;;18.90;99.90;;;;;;5053722;28;20572;-63
2023/07/28 00:31:18;;;;;;;1.25;1.15;;;18.90;99.90;;;;;;5036990;28;20043;-63
2023/07/28 00:33:44;;;;;;;1.20;1.10;;;19.00;99.90;;;;;;5051345;28;20053;-63
2023/07/28 00:36:10;;;;;;;2.72;0.98;;;19.00;99.90;;;;;;5055515;28;20083;-63
2023/07/28 00:38:36;;;;;;;3.42;1.40;;;18.90;99.90;;;;;;5053496;28;20040;-63
2023/07/28 00:41:01;;;;;;;1.70;1.20;;;19.00;99.90;;;;;;5054989;28;20024;-63
2023/07/28 00:43:27;;;;;;;1.70;1.10;;;19.00;99.90;;;;;;5053339;28;20029;-64
2023/07/28 00:45:53;;;;;;;1.00;1.00;;;19.10;99.90;;;;;;5034718;28;20128;-64
2023/07/28 00:48:20;;;;;;;2.40;1.10;;;19.10;99.90;;;;;;5052955;28;20032;-63
2023/07/28 00:50:48;;;;;;;0.90;0.90;;;19.10;99.90;;;;;;5053709;28;20036;-63
2023/07/28 00:53:14;;;;;;;1.13;1.02;;;19.10;99.90;;;;;;5042134;28;20043;-63
2023/07/28 00:55:41;;;;;;;3.55;0.85;;;19.10;99.90;;;;;;5034272;28;20210;-63
2023/07/28 00:58:07;;;;;;;1.20;1.10;;;19.10;99.90;;;;;;5037597;28;20582;-63
2023/07/28 01:00:34;;;;;;;1.85;0.93;;;19.10;99.90;;;;;;5052760;28;20029;-63
2023/07/28 01:03:00;;;;;;;1.20;1.08;;;19.10;99.90;;;;;;5052189;28;20025;-63
2023/07/28 01:05:38;;;;;;;1.75;1.10;;;19.20;99.90;;;;;;5053433;28;20037;-63
2023/07/28 01:08:12;;;;;;;1.25;1.02;;;19.20;99.90;;;;;;5032588;28;20492;-63
2023/07/28 01:10:39;;;;;;;1.20;1.10;;;19.20;99.90;;;;;;5035028;28;20492;-63
2023/07/28 01:13:04;;;;;;;4.97;1.40;;;19.20;99.90;;;;;;5036194;28;20139;-63
2023/07/28 01:15:30;;;;;;;2.90;1.42;;;19.20;99.90;;;;;;5053888;28;20441;-63
2023/07/28 01:17:56;;;;;;;1.80;1.38;;;19.20;99.90;;;;;;5036157;28;20513;-63
2023/07/28 01:20:27;;;;;;;1.63;1.50;;;19.30;99.90;;;;;;5033731;28;20061;-63
2023/07/28 01:23:08;;;;;;;2.13;1.42;;;19.20;99.90;;;;;;5052685;28;20029;-63
2023/07/28 01:25:37;;;;;;;1.88;1.75;;;19.20;99.90;;;;;;5050505;28;20040;-63
2023/07/28 01:28:03;;;;;;;4.80;1.80;;;19.30;99.90;;;;;;5051382;28;20033;-63
2023/07/28 01:30:29;;;;;;;3.25;1.88;;;19.20;99.90;;;;;;5054251;28;20040;-63
2023/07/28 01:32:56;;;;;;;3.92;1.90;;;19.20;99.90;;;;;;5053441;28;20739;-63
2023/07/28 01:35:23;;;;;;;3.70;2.13;;;19.20;99.90;;;;;;5054398;28;20040;-63
2023/07/28 01:37:50;;;;;;;4.35;2.10;;;19.30;99.90;;;;;;5054918;28;20032;-63
2023/07/28 01:40:20;;;;;;;3.22;2.47;;;19.20;99.90;;;;;;5057801;28;20040;-63
2023/07/28 01:42:46;;;;;;;5.40;2.60;;;19.20;99.90;;;;;;5038610;28;20056;-63
2023/07/28 01:45:12;;;;;;;4.15;2.60;;;19.20;99.90;;;;;;5058846;28;20045;-63
2023/07/28 01:47:37;;;;;;;7.07;2.30;;;19.30;99.90;;;;;;5022433;28;20059;-63
2023/07/28 01:50:04;;;;;;;4.28;2.72;;;19.30;99.90;;;;;;5040097;28;20025;-63
2023/07/28 01:52:29;;;;;;;4.30;2.55;;;19.30;99.90;;;;;;5056588;28;20040;-63
2023/07/28 01:54:55;;;;;;;3.28;2.30;;;19.30;99.90;;;;;;5055384;28;20025;-63
2023/07/28 01:57:21;;;;;;;4.78;2.72;;;19.30;99.90;;;;;;5040314;28;20033;-63
2023/07/28 01:59:47;;;;;;;3.70;2.83;;;19.30;99.90;;;;;;5038737;28;20032;-63
2023/07/28 02:02:12;;;;;;;5.28;2.70;;;19.20;99.90;;;;;;5057311;28;20033;-63
2023/07/28 02:04:38;;;;;;;4.18;2.17;;;19.30;99.90;;;;;;5056844;28;20051;-63
2023/07/28 02:07:04;;;;;;;3.13;2.53;;;19.30;99.90;;;;;;5054008;28;20033;-63
2023/07/28 02:09:30;;;;;;;6.18;2.40;;;19.30;99.90;;;;;;5050523;28;20048;-63
2023/07/28 02:11:56;;;;;;;3.67;2.47;;;19.30;99.90;;;;;;5058679;28;20041;-63
2023/07/28 02:14:21;;;;;;;4.55;2.63;;;19.30;99.90;;;;;;5035549;28;20397;-63
2023/07/28 02:16:47;;;;;;;5.75;2.55;;;19.30;99.90;;;;;;5055488;28;20035;-63
2023/07/28 02:19:13;;;;;;;4.07;2.80;;;19.30;99.90;;;;;;5057944;28;20488;-63
2023/07/28 02:21:39;;;;;;;4.00;2.83;;;19.30;99.90;;;;;;5038049;28;20044;-63
2023/07/28 02:24:04;;;;;;;4.28;2.63;;;19.30;99.90;;;;;;5034932;28;20094;-63
2023/07/28 02:26:30;;;;;;;6.70;3.10;;;19.40;99.90;;;;;;5056699;28;20033;-63
2023/07/28 02:28:56;;;;;;;4.45;2.80;;;19.30;99.90;;;;;;5039273;28;20060;-63
2023/07/28 02:31:22;;;;;;;6.05;3.13;;;19.30;99.90;;;;;;5054972;28;20035;-63
2023/07/28 02:33:47;;;;;;;3.50;3.03;;;19.30;99.90;;;;;;5038194;28;20032;-63
2023/07/28 02:36:13;;;;;;;4.40;2.63;;;19.30;99.90;;;;;;5034204;28;20107;-63
2023/07/28 02:38:39;;;;;;;3.13;2.83;;;19.30;99.90;;;;;;5021443;28;20040;-63
2023/07/28 02:41:04;;;;;;;5.78;2.40;;;19.30;99.90;;;;;;5057052;28;20037;-63
2023/07/28 02:43:30;;;;;;;3.10;2.78;;;19.30;99.90;;;;;;5056170;28;20112;-63
2023/07/28 02:45:57;;;;;;;4.60;2.90;;;19.30;99.90;;;;;;5038792;28;20055;-63
2023/07/28 02:48:23;;;;;;;4.30;2.95;;;19.30;99.90;;;;;;5035767;28;20037;-63
2023/07/28 02:50:51;;;;;;;5.15;3.10;;;19.30;99.90;;;;;;5053103;28;20523;-63
2023/07/28 02:53:17;;;;;;;3.38;2.67;;;19.40;99.90;;;;;;5038671;28;20043;-63
2023/07/28 02:55:43;;;;;;;3.50;3.05;;;19.40;99.90;;;;;;5055855;28;20104;-63
2023/07/28 02:58:10;;;;;;;4.20;2.85;;;19.40;99.90;;;;;;5038379;28;20033;-63
2023/07/28 03:00:43;;;;;;;3.20;2.65;;;19.40;99.90;;;;;;5037458;28;20032;-63
2023/07/28 03:03:11;;;;;;;3.70;2.90;;;19.40;99.90;;;;;;5036892;28;20035;-63
2023/07/28 03:05:39;;;;;;;3.72;3.15;;;19.40;99.90;;;;;;5036467;28;20033;-63
2023/07/28 03:08:20;;;;;;;3.20;2.67;;;19.40;99.90;;;;;;5038052;28;20040;-63
2023/07/28 03:10:46;;;;;;;4.75;2.47;;;19.40;99.90;;;;;;5037556;28;20032;-63
2023/07/28 03:13:12;;;;;;;6.43;3.28;;;19.40;99.90;;;;;;5033752;28;20085;-63
2023/07/28 03:15:37;;;;;;;4.75;3.25;;;19.40;99.90;;;;;;5037100;28;20040;-63
2023/07/28 03:18:03;;;;;;;4.53;3.33;;;19.40;99.90;;;;;;5038478;28;20607;-63
2023/07/28 03:20:29;;;;;;;8.05;3.58;;;19.40;99.90;;;;;;5037233;28;20123;-63
2023/07/28 03:22:55;;;;;;;4.18;3.42;;;19.40;99.90;;;;;;5033969;28;20492;-63
2023/07/28 03:25:21;;;;;;;4.40;2.97;;;19.40;99.90;;;;;;5054216;28;20041;-63
2023/07/28 03:27:47;;;;;;;7.00;3.20;;;19.40;99.90;;;;;;5037258;28;20060;-63
2023/07/28 03:30:14;;;;;;;4.95;3.05;;;19.40;99.90;;;;;;5055954;28;20586;-63
2023/07/28 03:32:40;;;;;;;5.82;2.92;;;19.40;99.90;;;;;;5054657;28;20688;-63
2023/07/28 03:35:07;;;;;;;5.85;3.17;;;19.40;99.90;;;;;;5036864;28;20025;-63
2023/07/28 03:37:38;;;;;;;5.82;3.15;;;19.40;99.90;;;;;;5035960;28;20400;-63
2023/07/28 03:40:04;;;;;;;6.28;3.30;;;19.40;99.90;;;;;;5036096;28;20021;-63
2023/07/28 03:42:39;;;;;;;3.08;2.78;;;19.40;99.90;;;;;;5035181;28;20112;-63
2023/07/28 03:45:05;;;;;;;5.70;3.45;;;19.50;99.90;;;;;;5035474;28;20570;-63
2023/07/28 03:47:31;;;;;;;4.30;3.60;;;19.40;99.90;;;;;;5038584;28;20052;-63
2023/07/28 03:49:57;;;;;;;3.90;3.38;;;19.40;99.90;;;;;;5053609;28;20035;-63
2023/07/28 03:52:22;;;;;;;5.72;3.78;;;19.40;99.90;;;;;;5056185;28;20029;-63
2023/07/28 03:54:48;;;;;;;3.58;3.25;;;19.40;99.90;;;;;;5035779;28;20059;-63
2023/07/28 03:57:14;;;;;;;4.20;3.80;;;19.40;99.90;;;;;;5038430;28;20050;-63
2023/07/28 03:59:40;;;;;;;6.40;4.10;;;19.40;99.90;;;;;;5052091;28;20483;-63
2023/07/28 04:02:06;;;;;;;4.85;4.22;;;19.40;99.90;;;;;;5053583;28;20048;-63
2023/07/28 04:04:32;;;;;;;5.07;3.97;;;19.40;99.90;;;;;;5035901;28;20067;-63
2023/07/28 04:06:57;;;;;;;8.70;4.13;;;19.40;99.90;;;;;;5035247;28;20029;-63
2023/07/28 04:09:24;;;;;;;6.45;4.57;;;19.40;99.90;;;;;;5038102;28;20753;-63
2023/07/28 04:11:49;;;;;;;4.55;3.85;;;19.40;99.90;;;;;;5035343;28;20033;-63
2023/07/28 04:14:15;;;;;;;5.50;3.88;;;19.40;99.90;;;;;;5055928;28;20043;-63
2023/07/28 04:16:41;;;;;;;5.40;4.68;;;19.40;99.90;;;;;;5053294;28;20036;-63
2023/07/28 04:19:07;;;;;;;5.97;5.13;;;19.40;99.90;;;;;;5035659;28;20028;-63
2023/07/28 04:21:33;;;;;;;5.90;4.70;;;19.50;99.90;;;;;;5056117;28;20035;-63
2023/07/28 04:23:59;;;;;;;5.00;4.25;;;19.50;99.90;;;;;;5035311;28;20448;-63
2023/07/28 04:26:25;;;;;;;6.35;4.03;;;19.50;99.90;;;;;;5038091;28;20036;-63
2023/07/28 04:28:57;;;;;;;6.47;5.10;;;19.50;99.90;;;;;;5035980;28;20836;-63
2023/07/28 04:31:23;;;;;;;6.22;4.70;;;19.60;99.90;;;;;;5036997;28;20033;-63
2023/07/28 04:33:56;;;;;;;5.53;4.40;;;19.50;99.90;;;;;;5034196;28;20739;-63
2023/07/28 04:36:25;;;;;;;5.35;4.85;;;19.50;99.90;;;;;;5037256;28;20106;-63
2023/07/28 04:38:51;;;;;;;4.90;4.35;;;19.50;99.90;;;;;;5035254;28;20813;-63
2023/07/28 04:41:16;;;;;;;4.50;4.10;;;19.50;99.90;;;;;;5055452;28;20108;-63
2023/07/28 04:43:48;;;;;;;6.40;4.20;;;19.50;99.90;;;;;;5033009;28;20041;-63
2023/07/28 04:46:14;;;;;;;5.13;4.18;;;19.50;99.90;;;;;;5032299;28;21432;-63
2023/07/28 04:48:42;;;;;;;5.15;4.30;;;19.60;99.90;;;;;;5034291;28;20037;-63
2023/07/28 04:51:28;;;;;;;4.03;3.55;;;19.60;99.90;;;;;;5052908;28;20497;-63
2023/07/28 04:54:12;;;;;;;7.28;4.47;;;19.60;99.90;;;;;;5050987;28;20067;-63
2023/07/28 04:56:37;;;;;;;7.57;4.38;;;19.60;99.90;;;;;;5033023;28;20036;-63
2023/07/28 04:59:04;;;;;;;5.35;4.85;;;19.60;99.90;;;;;;5053605;28;20028;-63
2023/07/28 05:01:30;;;;;;;7.10;4.00;;;19.60;99.90;;;;;;5037042;28;20031;-63
2023/07/28 05:03:56;;;;;;;8.25;4.80;;;19.60;99.90;;;;;;5035042;28;20033;-63
2023/07/28 05:06:25;;;;;;;4.72;4.32;;;19.70;99.90;;;;;;5036014;28;20492;-63
2023/07/28 05:08:51;;;;;;;6.30;3.95;;;19.70;99.90;;;;;;5051857;28;20033;-63
2023/07/28 05:11:23;;;;;;;3.80;3.45;;;19.70;99.90;;;;;;5033788;28;20053;-63
2023/07/28 05:13:49;;;;;;;6.57;4.00;;;19.70;99.90;;;;;;5035961;28;20082;-63
2023/07/28 05:16:15;;;;;;;5.00;4.15;;;19.80;99.90;;;;;;5036811;28;20416;-63
2023/07/28 05:18:59;;;;;;;5.05;3.72;;;19.70;99.90;;;;;;5052679;28;20040;-63
2023/07/28 05:21:43;;;;;;;3.72;3.42;;;19.80;99.90;;;;;;5052139;28;20504;-63
2023/07/28 05:24:12;;;;;;;3.92;3.58;;;19.70;99.90;;;;;;5032874;28;20173;-63
2023/07/28 05:26:37;;;;;;;5.32;3.60;;;19.70;99.90;;;;;;5015929;28;20033;-63
2023/07/28 05:29:03;;;;;;;6.45;3.90;;;19.70;99.90;;;;;;5051529;28;20489;-63
2023/07/28 05:31:29;;;;;;;3.55;3.25;;;19.80;99.90;;;;;;5030563;28;20037;-63
2023/07/28 05:33:55;;;;;;;4.35;3.88;;;19.70;99.90;;;;;;5021598;28;20048;-63
2023/07/28 05:36:21;;;;;;;4.70;3.42;;;19.70;99.90;;;;;;5034990;28;20444;-63
2023/07/28 05:38:49;;;;;;;3.63;3.10;;;19.80;99.90;;;;;;5033982;28;20036;-63
2023/07/28 05:41:15;;;;;;;4.38;3.15;;;19.80;99.90;;;;;;5036216;28;20029;-63
2023/07/28 05:43:44;;;;;;;3.75;3.30;;;19.80;99.90;;;;;;5036617;28;20564;-63
2023/07/28 05:46:10;;;;;;;3.22;2.92;;;19.90;99.90;;;;;;5033113;28;20036;-63
2023/07/28 05:48:36;;;;;;;3.55;3.25;;;19.90;99.90;;;;;;5030440;28;20025;-63
2023/07/28 05:51:02;;;;;;;4.25;3.28;;;20.00;99.90;;;;;;5049085;28;20654;-63
2023/07/28 05:53:28;;;;;;;3.72;2.80;;;19.90;99.90;;;;;;5036894;28;20458;-63
2023/07/28 05:56:00;;;;;;;3.05;2.70;;;20.00;99.90;;;;;;5035193;28;20124;-63
2023/07/28 05:58:29;;;;;;;5.57;2.72;;;20.00;99.90;;;;;;5035212;28;20143;-63
2023/07/28 06:00:55;;;;;;;4.35;2.60;;;20.00;99.90;;;;;;5032411;28;20111;-63
2023/07/28 06:03:39;;;;;;;3.13;2.58;;;20.00;99.90;;;;;;5048415;28;20715;-63
2023/07/28 06:06:12;;;;;;;3.83;2.78;;;20.00;99.90;;;;;;5030569;28;20025;-63
2023/07/28 06:08:38;;;;;;;3.05;2.45;;;20.00;99.90;;;;;;5035523;28;20040;-63
2023/07/28 06:11:06;;;;;;;2.80;2.58;;;20.10;99.90;;;;;;5034936;28;20033;-63
2023/07/28 06:13:32;;;;;;;4.68;2.50;;;20.10;99.90;;;;;;5035215;28;20560;-63
2023/07/28 06:15:58;;;;;;;2.92;2.10;;;20.20;99.90;;;;;;5034794;28;20033;-63
2023/07/28 06:18:25;;;;;;;2.80;2.53;;;20.30;99.90;;;;;;5034507;28;20060;-63
2023/07/28 06:21:00;;;;;;;3.75;2.20;;;20.30;99.90;;;;;;5032315;28;20032;-63
2023/07/28 06:23:27;;;;;;;2.28;2.10;;;20.40;99.90;;;;;;5033814;28;20033;-63
2023/07/28 06:25:55;;;;;;;5.15;2.47;;;20.50;99.90;;;;;;5036885;28;20036;-63
2023/07/28 06:28:21;;;;;;;2.15;2.03;;;20.50;99.90;;;;;;5040168;28;20448;-63
2023/07/28 06:30:47;;;;;;;2.25;2.00;;;20.50;99.90;;;;;;5036939;28;20113;-63
2023/07/28 06:33:13;;;;;;;3.45;2.20;;;20.50;99.90;;;;;;5040417;28;20034;-63
2023/07/28 06:35:38;;;;;;;2.60;1.70;;;20.60;99.90;;;;;;5054385;28;20037;-63
2023/07/28 06:38:04;;;;;;;2.70;1.83;;;20.60;99.90;;;;;;5058463;28;20035;-63
2023/07/28 06:40:30;;;;;;;2.13;1.92;;;20.70;99.90;;;;;;5050306;28;20035;-64
2023/07/28 06:42:56;;;;;;;2.00;1.80;;;20.70;99.90;;;;;;5036002;28;20052;-64
2023/07/28 06:45:22;;;;;;;4.70;1.60;;;20.70;99.90;;;;;;5040464;28;20164;-64
2023/07/28 06:47:48;;;;;;;2.42;1.85;;;20.80;99.90;;;;;;5035603;28;20033;-64
2023/07/28 06:50:15;;;;;;;2.17;1.98;;;20.70;99.90;;;;;;5037194;28;20115;-64
2023/07/28 06:52:40;;;;;;;4.68;2.25;;;20.80;99.90;;;;;;5036304;28;20037;-64
2023/07/28 06:55:07;;;;;;;1.73;1.63;;;20.80;99.90;;;;;;5058264;28;20032;-64
2023/07/28 06:57:35;;;;;;;2.30;2.05;;;20.90;99.90;;;;;;5032062;28;20089;-64
2023/07/28 07:00:00;;;;;;;2.45;1.90;;;20.90;99.90;;;;;;5054489;28;20037;-63
2023/07/28 07:02:26;;;;;;;1.92;1.70;;;20.80;99.90;;;;;;5054694;28;20032;-63
2023/07/28 07:04:52;;;;;;;2.83;1.70;;;20.80;99.90;;;;;;5036320;28;20037;-64
2023/07/28 07:07:18;;;;;;;2.80;2.17;;;20.90;99.90;;;;;;5040159;28;20038;-64
2023/07/28 07:09:45;;;;;;;5.78;2.97;;;20.90;99.90;;;;;;5036364;28;20032;-63
2023/07/28 07:12:10;;;;;;;2.50;1.70;;;21.00;99.90;;;;;;5039190;28;20033;-64
2023/07/28 07:14:36;;;;;;;3.65;1.85;;;21.00;99.90;;;;;;5036123;28;20382;-63
2023/07/28 07:17:02;;;;;;;5.68;1.90;;;21.00;99.90;;;;;;5053978;28;20075;-62
2023/07/28 07:19:29;;;;;;;1.77;1.65;;;21.00;99.90;;;;;;5032636;28;20059;-63
2023/07/28 07:21:55;;;;;;;1.67;1.58;;;21.00;99.90;;;;;;5053394;28;20098;-63
2023/07/28 07:24:21;;;;;;;2.38;1.60;;;21.10;99.90;;;;;;5057006;28;20040;-63
2023/07/28 07:26:47;;;;;;;2.97;1.52;;;21.20;99.90;;;;;;5052012;28;20166;-63
2023/07/28 07:29:13;;;;;;;1.45;1.35;;;21.30;99.90;;;;;;5056718;28;20044;-63
2023/07/28 07:31:39;;;;;;;1.85;1.58;;;21.40;99.90;;;;;;5053291;28;20104;-63
2023/07/28 07:34:05;;;;;;;1.55;1.30;;;21.40;99.90;;;;;;5053959;28;20049;-63
2023/07/28 07:36:31;;;;;;;1.33;1.10;;;21.50;99.90;;;;;;5057245;28;20077;-63
2023/07/28 07:38:57;;;;;;;3.22;1.20;;;21.60;99.90;;;;;;5053088;28;20033;-63
2023/07/28 07:41:23;;;;;;;2.47;1.35;;;21.70;99.90;;;;;;5054015;28;20035;-65
2023/07/28 07:43:52;;;;;;;1.30;1.20;;;21.90;99.90;;;;;;5053913;28;20191;-63
2023/07/28 07:46:19;;;;;;;2.63;1.25;;;21.90;99.90;;;;;;5057100;28;20464;-63
2023/07/28 07:48:45;;;;;;;1.40;1.30;;;21.90;99.90;;;;;;5054780;28;20033;-63
2023/07/28 07:51:11;;;;;;;2.90;1.70;;;21.80;99.90;;;;;;5052813;28;20036;-63
2023/07/28 07:53:37;;;;;;;1.95;1.45;;;21.70;99.90;;;;;;5056231;28;20028;-63
2023/07/28 07:56:04;;;;;;;1.27;1.17;;;21.80;99.90;;;;;;5052229;28;20036;-62
2023/07/28 07:58:30;;;;;;;2.58;1.15;;;21.80;99.90;;;;;;5037506;28;20876;-63
2023/07/28 08:00:56;;;;;;;1.73;1.10;;;21.90;99.90;;;;;;5056141;28;20064;-63
2023/07/28 08:03:22;;;;;;;1.52;1.08;;;21.90;99.90;;;;;;5055685;28;20037;-63
2023/07/28 08:05:48;;;;;;;3.50;1.20;;;21.80;99.90;;;;;;5054375;28;20591;-63
2023/07/28 08:08:17;;;;;;;1.83;1.05;;;21.90;99.90;;;;;;5053146;28;20098;-62
2023/07/28 08:10:43;;;;;;;1.42;1.13;;;21.90;99.90;;;;;;5055001;28;20044;-62
2023/07/28 08:13:10;;;;;;;1.92;1.10;;;22.00;99.90;;;;;;5054361;28;20606;-63
2023/07/28 08:15:36;;;;;;;1.25;1.17;;;22.00;99.90;;;;;;5055092;28;20766;-63
2023/07/28 08:18:02;;;;;;;1.20;1.10;;;21.90;99.90;;;;;;5054915;28;20037;-63
2023/07/28 08:20:28;;;;;;;1.65;1.30;;;21.80;99.90;;;;;;5054334;28;20025;-63
2023/07/28 08:22:54;;;;;;;1.80;1.20;;;21.70;99.90;;;;;;5054355;28;20033;-63
2023/07/28 08:25:22;;;;;;;2.10;1.52;;;21.60;99.90;;;;;;5034812;28;20044;-63
2023/07/28 08:27:48;;;;;;;4.95;1.73;;;21.70;99.90;;;;;;5054238;28;20112;-62
2023/07/28 08:30:15;;;;;;;2.40;1.23;;;21.90;99.90;;;;;;5054666;28;20484;-63
2023/07/28 08:32:42;;;;;;;2.47;1.50;;;22.00;99.90;;;;;;5054412;28;20033;-63
2023/07/28 08:35:08;;;;;;;1.25;1.10;;;22.10;99.90;;;;;;5051757;28;20087;-63
2023/07/28 08:37:34;;;;;;;2.20;1.20;;;22.20;99.90;;;;;;5054072;28;20556;-63
2023/07/28 08:40:00;;;;;;;1.83;1.25;;;22.30;99.90;;;;;;5057089;28;20103;-63
2023/07/28 08:42:28;;;;;;;4.13;1.58;;;22.30;99.90;;;;;;5052619;28;20029;-63
2023/07/28 08:44:54;;;;;;;1.40;1.30;;;22.30;99.90;;;;;;5053746;28;20029;-63
2023/07/28 08:47:21;;;;;;;1.55;1.45;;;22.20;99.90;;;;;;5055140;28;20031;-63
2023/07/28 08:49:47;;;;;;;1.40;1.30;;;22.10;99.90;;;;;;5046599;28;20050;-63
2023/07/28 08:52:16;;;;;;;1.33;1.23;;;21.90;99.90;;;;;;5054990;28;20037;-63
2023/07/28 08:54:42;;;;;;;1.88;1.40;;;21.80;99.90;;;;;;5051317;28;20042;-63
2023/07/28 08:57:09;;;;;;;1.40;1.30;;;21.70;99.90;;;;;;5055608;28;20135;-63
2023/07/28 08:59:36;;;;;;;5.50;1.80;;;21.60;99.90;;;;;;5051449;28;20037;-62
2023/07/28 09:02:02;;;;;;;3.33;1.70;;;21.70;99.90;;;;;;5047907;28;20554;-63
2023/07/28 09:04:28;;;;;;;2.60;1.70;;;21.80;99.90;;;;;;5055828;28;20032;-63
2023/07/28 09:06:54;;;;;;;1.85;1.75;;;21.90;99.90;;;;;;5052537;28;20544;-62
2023/07/28 09:09:23;;;;;;;1.77;1.67;;;21.90;99.90;;;;;;5055849;28;20040;-63
2023/07/28 09:11:53;;;;;;;1.90;1.40;;;21.80;99.90;;;;;;5050627;28;20405;-62
2023/07/28 09:14:20;;;;;;;2.65;1.70;;;21.80;99.90;;;;;;5055631;28;20028;-63
2023/07/28 09:16:47;;;;;;;1.60;1.50;;;21.70;99.90;;;;;;5053352;28;20033;-63
2023/07/28 09:19:13;;;;;;;1.75;1.30;;;21.70;99.90;;;;;;5051675;28;20021;-62
2023/07/28 09:21:43;;;;;;;2.97;1.52;;;21.60;99.90;;;;;;5054745;28;20450;-62
2023/07/28 09:24:13;;;;;;;1.75;1.65;;;21.60;99.90;;;;;;5053607;28;20515;-62
2023/07/28 09:26:45;;;;;;;2.13;1.80;;;21.50;99.90;;;;;;5051793;28;20028;-62
2023/07/28 09:29:15;;;;;;;3.92;2.30;;;21.40;99.90;;;;;;5055377;28;20037;-65
2023/07/28 09:31:41;;;;;;;2.53;1.70;;;21.40;99.90;;;;;;5052146;28;20032;-63
2023/07/28 09:34:08;;;;;;;1.70;1.60;;;21.40;99.90;;;;;;5055346;28;20177;-63
2023/07/28 09:36:35;;;;;;;3.05;1.90;;;21.40;99.90;;;;;;5052221;28;20032;-63
2023/07/28 09:39:03;;;;;;;2.08;1.70;;;21.40;99.90;;;;;;5046596;28;20083;-63
2023/07/28 09:41:32;;;;;;;3.35;1.60;;;21.40;99.90;;;;;;5050416;28;20054;-63
2023/07/28 09:43:58;;;;;;;2.20;2.00;;;21.50;99.90;;;;;;5052776;28;20468;-63
2023/07/28 09:46:26;;;;;;;3.33;1.88;;;21.60;99.90;;;;;;5052634;28;20025;-62
2023/07/28 09:48:56;;;;;;;2.08;1.70;;;21.80;99.90;;;;;;5051714;28;20025;-63
2023/07/28 09:51:30;;;;;;;1.95;1.58;;;21.90;99.90;;;;;;5053642;28;20033;-63
2023/07/28 09:54:01;;;;;;;2.80;1.70;;;22.10;99.90;;;;;;5051671;28;20104;-63
2023/07/28 09:56:29;;;;;;;2.58;1.80;;;22.30;99.90;;;;;;5055179;28;20052;-63
2023/07/28 09:58:57;;;;;;;1.65;1.55;;;22.50;99.90;;;;;;5053377;28;20120;-63
2023/07/28 10:01:23;;;;;;;2.25;1.60;;;22.70;99.90;;;;;;5053095;28;20036;-65
2023/07/28 10:03:50;;;;;;;1.60;1.50;;;22.80;99.90;;;;;;5054888;28;20512;-63
2023/07/28 10:06:17;;;;;;;1.75;1.65;;;22.90;99.90;;;;;;5056092;28;20048;-63
2023/07/28 10:08:44;;;;;;;2.42;1.83;;;22.90;99.90;;;;;;5057644;28;20033;-63
2023/07/28 10:11:12;;;;;;;2.72;1.48;;;23.10;99.90;;;;;;5054599;28;20043;-63
2023/07/28 10:13:42;;;;;;;1.35;1.20;;;23.20;99.90;;;;;;5058384;28;20067;-63
2023/07/28 10:16:14;;;;;;;1.65;1.55;;;23.40;99.90;;;;;;5058202;28;20041;-64
2023/07/28 10:18:40;;;;;;;1.50;1.30;;;23.50;99.90;;;;;;5058755;28;20086;-64
2023/07/28 10:21:12;;;;;;;1.77;1.50;;;23.50;99.90;;;;;;5053103;28;20032;-64
2023/07/28 10:23:39;;;;;;;3.00;1.30;;;23.60;99.90;;;;;;5054856;28;20548;-63
2023/07/28 10:26:05;;;;;;;1.40;1.30;;;23.70;99.90;;;;;;5056976;28;20731;-64
2023/07/28 10:28:34;;;;;;;4.43;1.45;;;23.80;99.90;;;;;;5054405;28;20791;-64
2023/07/28 10:31:01;;;;;;;1.27;1.17;;;23.80;99.90;;;;;;5053761;28;20033;-64
2023/07/28 10:33:36;;;;;;;1.10;1.08;;;23.80;99.90;;;;;;5058132;28;20040;-64
2023/07/28 10:36:23;;;;;;;1.98;1.17;;;24.00;99.90;;;;;;5043959;28;20115;-64
2023/07/28 10:39:04;;;;;;;1.40;1.30;;;24.10;99.90;;;;;;5051817;28;20194;-64
2023/07/28 10:41:33;;;;;;;0.95;0.95;;;24.20;99.90;;;;;;5055159;28;20040;-64
2023/07/28 10:43:59;;;;;;;4.07;1.50;;;24.30;99.90;;;;;;5053512;28;20060;-65
2023/07/28 10:46:27;;;;;;;1.27;1.17;;;24.40;99.90;;;;;;5058734;28;20032;-64
2023/07/28 10:48:53;;;;;;;1.80;1.30;;;24.40;99.90;;;;;;5054590;28;20040;-64
2023/07/28 10:51:29;;;;;;;1.92;1.45;;;24.30;99.90;;;;;;5053110;28;20040;-64
2023/07/28 10:53:55;;;;;;;;;;;24.30;99.90;;;;;;5053002;28;20055;-64
2023/07/28 10:56:22;;;;;;;1.33;1.10;;;24.20;99.90;;;;;;5057217;28;19970;-64
2023/07/28 10:59:03;;;;;;;1.48;1.33;;;24.10;99.90;;;;;;5054406;28;20115;-63
2023/07/28 11:01:39;;;;;;;2.10;1.30;;;24.10;99.90;;;;;;5055385;28;20043;-64
2023/07/28 11:04:16;;;;;;;2.08;1.70;;;24.10;99.90;;;;;;5057164;28;20058;-64
2023/07/28 11:06:44;;;;;;;1.92;1.20;;;24.20;99.90;;;;;;5051484;28;20036;-64
2023/07/28 11:09:10;;;;;;;1.77;1.30;;;24.30;99.90;;;;;;5053790;28;20044;-64
2023/07/28 11:11:38;;;;;;;2.83;1.50;;;24.30;99.90;;;;;;5055644;28;20127;-64
2023/07/28 11:14:08;;;;;;;1.70;1.60;;;24.40;99.90;;;;;;5050446;28;20189;-64
2023/07/28 11:16:35;;;;;;;1.52;1.20;;;24.50;99.90;;;;;;5056773;28;20025;-64
2023/07/28 11:19:02;;;;;;;1.40;1.30;;;24.40;99.90;;;;;;5056233;28;20390;-64
2023/07/28 11:21:28;;;;;;;1.40;1.30;;;24.40;99.90;;;;;;5054288;28;20036;-64
2023/07/28 11:23:54;;;;;;;2.45;1.40;;;24.40;99.90;;;;;;5053363;28;20079;-64
2023/07/28 11:26:22;;;;;;;2.20;1.27;;;24.50;99.90;;;;;;5051004;28;20032;-64
2023/07/28 11:28:48;;;;;;;1.90;1.38;;;24.40;99.90;;;;;;5054422;28;20095;-65
2023/07/28 11:31:14;;;;;;;1.63;1.48;;;24.40;99.90;;;;;;5056443;28;20033;-64
2023/07/28 11:33:40;;;;;;;2.05;1.20;;;24.40;99.90;;;;;;5053355;28;20722;-64
2023/07/28 11:36:06;;;;;;;1.77;1.40;;;24.50;99.90;;;;;;5056218;28;20070;-64
2023/07/28 11:38:35;;;;;;;3.95;1.40;;;24.50;99.90;;;;;;5055339;28;20025;-64
2023/07/28 11:41:02;;;;;;;1.98;1.23;;;24.50;99.90;;;;;;5047249;28;20107;-64
2023/07/28 11:43:29;;;;;;;1.50;1.40;;;24.50;99.90;;;;;;5056457;28;20034;-64
2023/07/28 11:45:55;;;;;;;1.60;1.50;;;24.40;99.90;;;;;;5052648;28;20488;-64
2023/07/28 11:48:20;;;;;;;2.30;1.60;;;24.40;99.90;;;;;;5055518;28;20036;-64
2023/07/28 11:50:46;;;;;;;1.77;1.60;;;24.40;99.90;;;;;;5051446;28;20107;-64
2023/07/28 11:53:12;;;;;;;3.00;1.70;;;24.30;99.90;;;;;;5055404;28;20127;-64
2023/07/28 11:55:39;;;;;;;2.70;1.90;;;24.20;99.90;;;;;;5051532;28;20033;-64
2023/07/28 11:58:06;;;;;;;1.77;1.67;;;24.00;99.90;;;;;;5048034;28;20067;-64
2023/07/28 12:00:34;;;;;;;1.88;1.77;;;23.80;99.90;;;;;;5044371;28;20041;-64
2023/07/28 12:03:12;;;;;;;2.20;1.85;;;23.70;99.90;;;;;;5053082;28;20029;-64
2023/07/28 12:05:58;;;;;;;5.20;1.90;;;23.60;99.90;;;;;;5054320;28;20040;-64
2023/07/28 12:08:39;;;;;;;2.08;1.98;;;23.50;99.90;;;;;;5038701;28;20045;-64
2023/07/28 12:11:11;;;;;;;2.20;2.00;;;23.40;99.90;;;;;;5054313;28;20449;-63
2023/07/28 12:13:53;;;;;;;1.98;1.80;;;23.40;99.90;;;;;;5052427;28;20033;-63
2023/07/28 12:16:47;;;;;;;2.97;2.40;;;23.40;99.90;;;;;;5052789;28;20053;-64
2023/07/28 12:19:14;;;;;;;2.90;2.20;;;23.20;99.90;;;;;;5051141;28;20033;-64
2023/07/28 12:21:39;;;;;;;3.90;2.85;;;23.10;99.90;;;;;;5053182;28;20063;-64
2023/07/28 12:24:05;;;;;;;2.30;2.10;;;23.00;99.90;;;;;;5053469;28;20149;-64
2023/07/28 12:26:31;;;;;;;3.55;2.55;;;22.90;99.90;;;;;;5054458;28;20056;-64
2023/07/28 12:28:56;;;;;;;4.45;2.28;;;22.80;99.90;;;;;;5052800;28;20452;-64
2023/07/28 12:31:22;;;;;;;2.60;2.00;;;22.70;99.90;;;;;;5054127;28;20724;-62
2023/07/28 12:33:48;;;;;;;2.92;1.98;;;22.70;99.90;;;;;;5051205;28;20457;-63
2023/07/28 12:36:14;;;;;;;5.63;2.00;;;22.70;99.90;;;;;;5054232;28;20032;-63
2023/07/28 12:38:39;;;;;;;6.82;2.47;;;22.70;99.90;;;;;;5051904;28;20748;-66
2023/07/28 12:41:07;;;;;;;4.97;2.35;;;22.60;99.90;;;;;;5054480;28;20132;-64
2023/07/28 12:43:33;;;;;;;4.72;2.15;;;22.50;99.90;;;;;;5054642;28;20086;-63
2023/07/28 12:45:59;;;;;;;3.55;2.15;;;22.40;99.90;;;;;;5054326;28;20028;-65
2023/07/28 12:48:24;;;;;;;3.17;1.95;;;22.30;99.90;;;;;;5054600;28;20905;-64
2023/07/28 12:50:50;;;;;;;3.15;2.40;;;22.30;99.90;;;;;;5052307;28;20628;-65